| time (UTC) | temp F | wind direction | speed MPH | gust MPH | rain 1hr in | rain 24hr in | rain mn in | humidity % | barometer mb |
| 20260510044830 | 76 | 219 | 2.0 | 5.0 | 0.00 | 0.00 | 0.01 | 82 | 1009.5 |
| 20260510044820 | 76 | 254 | 1.0 | 5.0 | 0.00 | 0.01 | 0.01 | 82 | 1008.4 |
| 20260510044328 | 76 | 236 | 1.0 | 2.0 | 0.00 | 0.00 | 0.01 | 81 | 1009.5 |
| 20260510043829 | 76 | 227 | 0.0 | 1.0 | 0.00 | 0.00 | 0.01 | 81 | 1009.8 |
| 20260510043819 | 76 | 227 | 0.0 | 2.0 | 0.00 | 0.01 | 0.01 | 81 | 1008.5 |
| 20260510043328 | 76 | 215 | 0.0 | 1.0 | 0.00 | 0.00 | 0.01 | 81 | 1009.8 |
| 20260510043316 | 76 | 215 | 0.0 | 1.0 | 0.00 | 0.01 | 0.01 | 81 | 1008.6 |
| 20260510042829 | 76 | 215 | 0.0 | 0.0 | 0.00 | 0.00 | 0.01 | 80 | 1009.8 |
| 20260510042816 | 76 | 215 | 0.0 | 1.0 | 0.00 | 0.01 | 0.01 | 80 | 1008.7 |
| 20260510042327 | 76 | 215 | 0.0 | 1.0 | 0.00 | 0.00 | 0.01 | 79 | 1009.8 |
| 20260510041829 | 76 | 215 | 0.0 | 0.0 | 0.00 | 0.00 | 0.01 | 79 | 1009.8 |
| 20260510041329 | 77 | 234 | 0.0 | 1.0 | 0.00 | 0.00 | 0.01 | 78 | 1009.8 |
| 20260510041316 | 76 | 234 | 0.0 | 2.0 | 0.00 | 0.01 | 0.01 | 78 | 1008.6 |
| 20260510040828 | 77 | 234 | 0.0 | 2.0 | 0.00 | 0.00 | 0.01 | 77 | 1009.5 |
| 20260510040818 | 77 | 234 | 0.0 | 2.0 | 0.00 | 0.01 | 0.01 | 77 | 1008.4 |
| 20260510040328 | 77 | 228 | 0.0 | 1.0 | 0.00 | 0.00 | 0.01 | 77 | 1009.5 |
| 20260510040316 | 77 | 231 | 0.0 | 1.0 | 0.00 | 0.01 | 0.01 | 77 | 1008.4 |
| 20260510035828 | 77 | 198 | 0.0 | 0.0 | 0.00 | 0.00 | 0.01 | 76 | 1009.5 |
| 20260510035816 | 77 | 198 | 0.0 | 1.0 | 0.00 | 0.01 | 0.01 | 76 | 1008.5 |
| 20260510035327 | 77 | 197 | 0.0 | 0.0 | 0.00 | 0.00 | 0.01 | 76 | 1009.5 |
| 20260510035316 | 77 | 197 | 0.0 | 1.0 | 0.00 | 0.01 | 0.01 | 76 | 1008.4 |
| 20260510034827 | 77 | 251 | 0.0 | 1.0 | 0.00 | 0.00 | 0.01 | 75 | 1009.5 |
| 20260510034326 | 77 | 209 | 0.0 | 0.0 | 0.00 | 0.00 | 0.01 | 75 | 1009.5 |
| 20260510033827 | 78 | 209 | 0.0 | 0.0 | 0.00 | 0.00 | 0.01 | 75 | 1009.5 |
| 20260510033814 | 78 | 209 | 0.0 | 0.0 | 0.00 | 0.01 | 0.01 | 75 | 1008.3 |
| 20260510033327 | 78 | 223 | 0.0 | 0.0 | 0.00 | 0.00 | 0.01 | 75 | 1009.1 |
| 20260510033313 | 78 | 223 | 0.0 | 1.0 | 0.00 | 0.01 | 0.01 | 75 | 1008.2 |
| 20260510032829 | 78 | 224 | 0.0 | 1.0 | 0.00 | 0.00 | 0.01 | 75 | 1009.1 |
| 20260510032815 | 78 | 224 | 0.0 | 1.0 | 0.00 | 0.01 | 0.01 | 75 | 1008.2 |
| 20260510032326 | 78 | 169 | 0.0 | 0.0 | 0.00 | 0.00 | 0.01 | 75 | 1009.5 |
| 20260510032313 | 78 | 169 | 0.0 | 1.0 | 0.00 | 0.01 | 0.01 | 75 | 1008.2 |
| 20260510031826 | 78 | 145 | 0.0 | 0.0 | 0.00 | 0.00 | 0.01 | 75 | 1009.1 |
| 20260510031813 | 78 | 145 | 0.0 | 1.0 | 0.00 | 0.01 | 0.01 | 75 | 1008.2 |
| 20260510031326 | 78 | 143 | 0.0 | 0.0 | 0.00 | 0.00 | 0.01 | 75 | 1009.1 |
| 20260510031314 | 78 | 143 | 0.0 | 1.0 | 0.00 | 0.01 | 0.01 | 75 | 1008.0 |
| 20260510030825 | 78 | 143 | 0.0 | 0.0 | 0.00 | 0.00 | 0.01 | 75 | 1009.1 |
| 20260510030810 | 78 | 143 | 0.0 | 1.0 | 0.00 | 0.01 | 0.01 | 75 | 1007.9 |
| 20260510030325 | 78 | 143 | 0.0 | 0.0 | 0.00 | 0.00 | 0.01 | 75 | 1009.1 |
| 20260510030311 | 78 | 143 | 0.0 | 1.0 | 0.00 | 0.01 | 0.01 | 75 | 1007.9 |
| 20260510025825 | 78 | 143 | 0.0 | 0.0 | 0.00 | 0.00 | 0.01 | 75 | 1008.8 |
| 20260510025809 | 78 | 143 | 0.0 | 1.0 | 0.00 | 0.01 | 0.01 | 75 | 1007.8 |
| 20260510025342 | 79 | 244 | 0.0 | 1.0 | 0.00 | 0.00 | 0.01 | 75 | 1008.8 |
| 20260510025310 | 79 | 244 | 0.0 | 1.0 | 0.00 | 0.01 | 0.01 | 75 | 1007.6 |
| 20260510024924 | 79 | 244 | 0.0 | 0.0 | 0.00 | 0.00 | 0.01 | 74 | 1008.8 |
| 20260510024426 | 79 | 244 | 0.0 | 0.0 | 0.00 | 0.00 | 0.01 | 73 | 1008.5 |
| 20260510024310 | 79 | 244 | 0.0 | 1.0 | 0.00 | 0.01 | 0.01 | 73 | 1007.4 |
| 20260510023925 | 79 | 244 | 0.0 | 0.0 | 0.00 | 0.00 | 0.01 | 73 | 1008.5 |
| 20260510023809 | 79 | 244 | 0.0 | 2.0 | 0.00 | 0.01 | 0.01 | 73 | 1007.4 |
| 20260510023428 | 80 | 243 | 0.0 | 1.0 | 0.00 | 0.00 | 0.01 | 72 | 1008.5 |
| 20260510023310 | 80 | 244 | 0.0 | 2.0 | 0.00 | 0.01 | 0.01 | 72 | 1007.1 |
| 20260510022925 | 80 | 223 | 0.0 | 0.0 | 0.00 | 0.00 | 0.01 | 72 | 1008.1 |
| 20260510022810 | 80 | 223 | 0.0 | 4.0 | 0.00 | 0.01 | 0.01 | 72 | 1007.0 |
| 20260510022425 | 80 | 223 | 0.0 | 1.0 | 0.00 | 0.00 | 0.01 | 72 | 1008.1 |
| 20260510022307 | 80 | 223 | 1.0 | 5.0 | 0.00 | 0.01 | 0.01 | 71 | 1006.8 |
| 20260510021924 | 80 | 241 | 2.0 | 5.0 | 0.00 | 0.00 | 0.01 | 71 | 1007.8 |
| 20260510021806 | 80 | 225 | 1.0 | 6.0 | 0.00 | 0.01 | 0.01 | 71 | 1006.8 |
| 20260510021424 | 80 | 213 | 2.0 | 3.0 | 0.00 | 0.00 | 0.01 | 72 | 1007.8 |
| 20260510020925 | 80 | 199 | 1.0 | 6.0 | 0.00 | 0.00 | 0.01 | 71 | 1007.8 |
| 20260510020426 | 81 | 231 | 0.0 | 1.0 | 0.00 | 0.00 | 0.01 | 72 | 1007.8 |
| 20260510020307 | 81 | 237 | 0.0 | 2.0 | 0.00 | 0.01 | 0.01 | 71 | 1006.6 |
| 20260510015924 | 81 | 231 | 0.0 | 1.0 | 0.00 | 0.00 | 0.01 | 71 | 1007.8 |
| 20260510015424 | 81 | 202 | 0.0 | 3.0 | 0.00 | 0.00 | 0.01 | 71 | 1007.5 |
| 20260510014924 | 81 | 232 | 0.0 | 3.0 | 0.00 | 0.00 | 0.01 | 71 | 1007.5 |
| 20260510014806 | 81 | 230 | 2.0 | 6.0 | 0.00 | 0.01 | 0.01 | 71 | 1006.2 |
| 20260510014424 | 82 | 229 | 2.0 | 6.0 | 0.00 | 0.00 | 0.01 | 71 | 1007.1 |
| 20260510014308 | 82 | 221 | 2.0 | 6.0 | 0.00 | 0.01 | 0.01 | 71 | 1006.0 |
| 20260510013923 | 82 | 177 | 2.0 | 3.0 | 0.00 | 0.00 | 0.01 | 71 | 1007.5 |
| 20260510013802 | 82 | 207 | 2.0 | 8.0 | 0.00 | 0.01 | 0.01 | 71 | 1006.2 |
| 20260510013421 | 82 | 194 | 0.0 | 3.0 | 0.00 | 0.00 | 0.01 | 71 | 1007.5 |
| 20260510012922 | 82 | 200 | 2.0 | 3.0 | 0.00 | 0.00 | 0.01 | 71 | 1007.5 |
| 20260510012803 | 82 | 193 | 1.0 | 4.0 | 0.00 | 0.01 | 0.01 | 71 | 1006.2 |
| 20260510012423 | 83 | 249 | 0.0 | 3.0 | 0.00 | 0.00 | 0.01 | 71 | 1007.5 |
| 20260510012302 | 83 | 233 | 1.0 | 3.0 | 0.00 | 0.01 | 0.01 | 71 | 1006.5 |
| 20260510011924 | 83 | 232 | 0.0 | 3.0 | 0.00 | 0.00 | 0.01 | 70 | 1007.8 |
| 20260510011424 | 84 | 196 | 0.0 | 0.0 | 0.00 | 0.00 | 0.01 | 70 | 1007.8 |
| 20260510011302 | 84 | 194 | 1.0 | 2.0 | 0.00 | 0.01 | 0.01 | 70 | 1006.6 |
| 20260510010922 | 84 | 199 | 1.0 | 1.0 | 0.00 | 0.00 | 0.01 | 69 | 1007.8 |
| 20260510010801 | 84 | 199 | 1.0 | 2.0 | 0.00 | 0.01 | 0.01 | 69 | 1006.6 |
| 20260510010423 | 84 | 231 | 1.0 | 2.0 | 0.00 | 0.00 | 0.01 | 69 | 1007.8 |
| 20260510010303 | 84 | 258 | 1.0 | 3.0 | 0.00 | 0.01 | 0.01 | 69 | 1006.6 |
| 20260510005922 | 85 | 184 | 1.0 | 2.0 | 0.00 | 0.00 | 0.01 | 68 | 1007.8 |
| 20260510005802 | 85 | 200 | 1.0 | 4.0 | 0.00 | 0.01 | 0.01 | 68 | 1006.6 |
| 20260510005422 | 85 | 279 | 2.0 | 4.0 | 0.00 | 0.00 | 0.01 | 67 | 1007.8 |
| 20260510005258 | 85 | 245 | 1.0 | 5.0 | 0.00 | 0.01 | 0.01 | 67 | 1006.5 |
| 20260510004921 | 86 | 246 | 1.0 | 3.0 | 0.00 | 0.00 | 0.01 | 67 | 1007.8 |
| 20260510004758 | 85 | 188 | 1.0 | 5.0 | 0.00 | 0.01 | 0.01 | 67 | 1006.5 |
| 20260510004424 | 86 | 245 | 0.0 | 2.0 | 0.00 | 0.00 | 0.01 | 67 | 1007.8 |
| 20260510003922 | 86 | 158 | 1.0 | 3.0 | 0.00 | 0.00 | 0.01 | 67 | 1007.8 |
| 20260510003757 | 86 | 200 | 2.0 | 5.0 | 0.00 | 0.01 | 0.01 | 67 | 1006.6 |
| 20260510003421 | 87 | 194 | 0.0 | 5.0 | 0.00 | 0.00 | 0.01 | 66 | 1007.8 |
| 20260510003258 | 87 | 229 | 2.0 | 5.0 | 0.00 | 0.01 | 0.01 | 66 | 1006.5 |
| 20260510002922 | 88 | 213 | 2.0 | 5.0 | 0.00 | 0.00 | 0.01 | 65 | 1007.5 |
| 20260510002757 | 88 | 228 | 2.0 | 7.0 | 0.00 | 0.01 | 0.01 | 65 | 1006.4 |
| 20260510002422 | 89 | 195 | 4.0 | 5.0 | 0.00 | 0.00 | 0.01 | 64 | 1007.5 |
| 20260510002258 | 89 | 209 | 2.0 | 7.0 | 0.00 | 0.01 | 0.01 | 63 | 1006.3 |
| 20260510001921 | 90 | 229 | 4.0 | 5.0 | 0.00 | 0.00 | 0.01 | 61 | 1007.5 |
| 20260510001758 | 90 | 196 | 1.0 | 5.0 | 0.00 | 0.01 | 0.01 | 60 | 1006.0 |
| 20260510001421 | 90 | 166 | 1.0 | 4.0 | 0.00 | 0.00 | 0.01 | 60 | 1007.1 |
| 20260510001258 | 90 | 205 | 0.0 | 4.0 | 0.00 | 0.01 | 0.01 | 60 | 1005.9 |
| 20260510000920 | 91 | 227 | 0.0 | 1.0 | 0.00 | 0.00 | 0.01 | 59 | 1007.1 |
| 20260510000421 | 91 | 236 | 0.0 | 1.0 | 0.00 | 0.00 | 0.01 | 58 | 1007.1 |
| 20260510000256 | 91 | 236 | 0.0 | 3.0 | 0.00 | 0.01 | 0.01 | 58 | 1005.9 |
| 20260509235922 | 91 | 50 | 0.0 | 1.0 | 0.00 | 0.00 | 0.01 | 58 | 1006.8 |
| 20260509235753 | 91 | 50 | 0.0 | 3.0 | 0.00 | 0.01 | 0.01 | 58 | 1005.8 |
| 20260509235419 | 91 | 332 | 0.0 | 1.0 | 0.00 | 0.00 | 0.01 | 57 | 1006.8 |
| 20260509235253 | 91 | 44 | 0.0 | 3.0 | 0.00 | 0.01 | 0.01 | 57 | 1005.6 |
| 20260509234919 | 91 | 48 | 1.0 | 1.0 | 0.00 | 0.00 | 0.01 | 57 | 1006.8 |
| 20260509234753 | 92 | 48 | 0.0 | 2.0 | 0.00 | 0.01 | 0.01 | 57 | 1005.7 |
| 20260509234419 | 92 | 48 | 0.0 | 2.0 | 0.00 | 0.00 | 0.01 | 56 | 1006.8 |
| 20260509234254 | 92 | 48 | 0.0 | 2.0 | 0.00 | 0.01 | 0.01 | 56 | 1005.6 |
| 20260509233922 | 92 | 181 | 0.0 | 1.0 | 0.00 | 0.00 | 0.01 | 56 | 1006.8 |
| 20260509233754 | 92 | 205 | 0.0 | 1.0 | 0.00 | 0.01 | 0.01 | 56 | 1005.5 |
| 20260509233419 | 92 | 172 | 0.0 | 1.0 | 0.00 | 0.00 | 0.01 | 54 | 1006.8 |
| 20260509233255 | 92 | 166 | 0.0 | 2.0 | 0.00 | 0.01 | 0.01 | 54 | 1005.6 |
| 20260509232919 | 92 | 148 | 0.0 | 2.0 | 0.00 | 0.00 | 0.01 | 54 | 1006.8 |
| 20260509232753 | 92 | 68 | 0.0 | 2.0 | 0.00 | 0.01 | 0.01 | 53 | 1005.6 |
| 20260509232420 | 92 | 131 | 0.0 | 1.0 | 0.00 | 0.00 | 0.01 | 54 | 1006.8 |
| 20260509232250 | 92 | 146 | 0.0 | 1.0 | 0.00 | 0.01 | 0.01 | 55 | 1005.6 |
| 20260509231918 | 93 | 95 | 0.0 | 1.0 | 0.00 | 0.00 | 0.01 | 54 | 1006.8 |
| 20260509231750 | 92 | 96 | 0.0 | 1.0 | 0.00 | 0.01 | 0.01 | 54 | 1005.6 |
| 20260509231418 | 93 | 100 | 0.0 | 1.0 | 0.00 | 0.00 | 0.01 | 53 | 1006.8 |
| 20260509231250 | 93 | 100 | 0.0 | 1.0 | 0.00 | 0.01 | 0.01 | 52 | 1005.6 |
| 20260509230919 | 93 | 115 | 0.0 | 1.0 | 0.00 | 0.00 | 0.01 | 54 | 1006.8 |
| 20260509230749 | 93 | 113 | 0.0 | 1.0 | 0.00 | 0.01 | 0.01 | 54 | 1005.6 |
| 20260509230418 | 94 | 184 | 0.0 | 1.0 | 0.00 | 0.00 | 0.01 | 54 | 1006.8 |
| 20260509230250 | 93 | 32 | 0.0 | 1.0 | 0.00 | 0.01 | 0.01 | 53 | 1005.6 |
| 20260509225917 | 94 | 228 | 1.0 | 1.0 | 0.00 | 0.00 | 0.01 | 53 | 1006.8 |
| 20260509225750 | 94 | 261 | 0.0 | 2.0 | 0.00 | 0.01 | 0.01 | 53 | 1005.6 |
| 20260509225418 | 94 | 183 | 1.0 | 1.0 | 0.00 | 0.00 | 0.01 | 53 | 1006.8 |
| 20260509225249 | 94 | 58 | 0.0 | 2.0 | 0.00 | 0.01 | 0.01 | 53 | 1005.6 |
| 20260509224916 | 94 | 200 | 0.0 | 1.0 | 0.00 | 0.00 | 0.01 | 54 | 1006.4 |
| 20260509224749 | 94 | 200 | 0.0 | 3.0 | 0.00 | 0.01 | 0.01 | 54 | 1005.5 |
| 20260509224417 | 94 | 238 | 0.0 | 2.0 | 0.00 | 0.00 | 0.01 | 53 | 1006.8 |
| 20260509224250 | 94 | 237 | 1.0 | 3.0 | 0.00 | 0.01 | 0.01 | 52 | 1005.5 |
| 20260509223919 | 94 | 302 | 0.0 | 3.0 | 0.00 | 0.00 | 0.01 | 52 | 1006.8 |
| 20260509223747 | 94 | 225 | 1.0 | 4.0 | 0.00 | 0.01 | 0.01 | 52 | 1005.7 |
| 20260509223417 | 94 | 182 | 0.0 | 2.0 | 0.00 | 0.00 | 0.01 | 52 | 1006.8 |
| 20260509223244 | 94 | 194 | 1.0 | 4.0 | 0.00 | 0.01 | 0.01 | 52 | 1005.8 |
| 20260509222917 | 94 | 169 | 1.0 | 2.0 | 0.00 | 0.00 | 0.01 | 53 | 1006.8 |
| 20260509222744 | 94 | 211 | 0.0 | 1.0 | 0.00 | 0.01 | 0.01 | 53 | 1005.7 |
| 20260509222427 | 93 | 163 | 0.0 | 0.0 | 0.00 | 0.00 | 0.01 | 55 | 1006.8 |
| 20260509222244 | 93 | 163 | 1.0 | 4.0 | 0.00 | 0.01 | 0.01 | 55 | 1005.7 |
| 20260509221916 | 93 | 70 | 0.0 | 0.0 | 0.00 | 0.00 | 0.01 | 54 | 1006.8 |
| 20260509221745 | 92 | 70 | 1.0 | 4.0 | 0.00 | 0.01 | 0.01 | 55 | 1005.5 |
| 20260509221416 | 93 | 51 | 1.0 | 4.0 | 0.00 | 0.00 | 0.01 | 53 | 1006.8 |
| 20260509221240 | 93 | 63 | 1.0 | 3.0 | 0.00 | 0.01 | 0.01 | 53 | 1005.6 |
| 20260509220915 | 93 | 51 | 0.0 | 1.0 | 0.00 | 0.00 | 0.01 | 54 | 1006.8 |
| 20260509220740 | 93 | 51 | 1.0 | 3.0 | 0.00 | 0.01 | 0.01 | 53 | 1005.6 |
| 20260509220416 | 93 | 55 | 1.0 | 1.0 | 0.00 | 0.00 | 0.01 | 54 | 1006.8 |
| 20260509220240 | 93 | 127 | 0.0 | 3.0 | 0.00 | 0.01 | 0.01 | 54 | 1005.6 |
| 20260509215916 | 94 | 67 | 1.0 | 3.0 | 0.00 | 0.00 | 0.01 | 54 | 1006.8 |
| 20260509215740 | 93 | 90 | 0.0 | 3.0 | 0.00 | 0.01 | 0.01 | 55 | 1005.7 |
| 20260509215417 | 92 | 57 | 0.0 | 0.0 | 0.00 | 0.00 | 0.01 | 56 | 1006.8 |
| 20260509215239 | 92 | 57 | 0.0 | 2.0 | 0.00 | 0.01 | 0.01 | 56 | 1005.8 |
| 20260509214915 | 91 | 57 | 0.0 | 0.0 | 0.00 | 0.00 | 0.01 | 55 | 1006.8 |
| 20260509214734 | 91 | 57 | 0.0 | 2.0 | 0.00 | 0.01 | 0.01 | 56 | 1005.7 |
| 20260509214414 | 92 | 56 | 1.0 | 2.0 | 0.00 | 0.00 | 0.01 | 56 | 1006.8 |
| 20260509214234 | 92 | 57 | 0.0 | 2.0 | 0.00 | 0.01 | 0.01 | 55 | 1005.7 |
| 20260509213917 | 92 | 71 | 0.0 | 0.0 | 0.00 | 0.00 | 0.01 | 55 | 1006.8 |
| 20260509213734 | 92 | 71 | 1.0 | 3.0 | 0.00 | 0.01 | 0.01 | 54 | 1005.7 |
| 20260509213416 | 92 | 86 | 0.0 | 0.0 | 0.00 | 0.00 | 0.01 | 55 | 1006.8 |
| 20260509213234 | 92 | 86 | 1.0 | 3.0 | 0.00 | 0.01 | 0.01 | 55 | 1005.8 |
| 20260509212915 | 93 | 84 | 1.0 | 2.0 | 0.00 | 0.00 | 0.01 | 55 | 1006.8 |
| 20260509212732 | 93 | 42 | 1.0 | 3.0 | 0.00 | 0.01 | 0.01 | 55 | 1005.7 |
| 20260509212414 | 93 | 36 | 1.0 | 2.0 | 0.00 | 0.00 | 0.01 | 53 | 1006.8 |
| 20260509212231 | 94 | 37 | 0.0 | 5.0 | 0.00 | 0.01 | 0.01 | 53 | 1005.7 |
| 20260509211913 | 94 | 44 | 1.0 | 1.0 | 0.00 | 0.00 | 0.01 | 52 | 1006.8 |
| 20260509211732 | 94 | 224 | 1.0 | 5.0 | 0.00 | 0.01 | 0.01 | 53 | 1005.8 |
| 20260509211413 | 95 | 349 | 0.0 | 5.0 | 0.00 | 0.00 | 0.01 | 52 | 1006.8 |
| 20260509211232 | 94 | 281 | 1.0 | 5.0 | 0.00 | 0.01 | 0.01 | 52 | 1005.7 |
| 20260509210913 | 95 | 228 | 1.0 | 3.0 | 0.00 | 0.00 | 0.01 | 51 | 1006.8 |
| 20260509210729 | 95 | 289 | 2.0 | 6.0 | 0.00 | 0.01 | 0.01 | 52 | 1005.7 |
| 20260509210414 | 95 | 250 | 1.0 | 6.0 | 0.00 | 0.00 | 0.01 | 51 | 1006.8 |
| 20260509210231 | 95 | 215 | 1.0 | 6.0 | 0.00 | 0.01 | 0.01 | 51 | 1005.8 |
| 20260509205914 | 95 | 244 | 0.0 | 1.0 | 0.00 | 0.00 | 0.01 | 51 | 1007.1 |
| 20260509205731 | 94 | 263 | 1.0 | 4.0 | 0.00 | 0.01 | 0.01 | 52 | 1005.9 |
| 20260509205412 | 94 | 263 | 0.0 | 4.0 | 0.00 | 0.00 | 0.01 | 52 | 1007.1 |
| 20260509205230 | 94 | 221 | 0.0 | 3.0 | 0.00 | 0.01 | 0.01 | 54 | 1005.9 |
| 20260509204942 | 93 | 253 | 0.0 | 2.0 | 0.00 | 0.00 | 0.01 | 53 | 1007.1 |
| 20260509204724 | 93 | 53 | 0.0 | 3.0 | 0.00 | 0.01 | 0.01 | 54 | 1006.0 |
| 20260509204443 | 93 | 53 | 0.0 | 3.0 | 0.00 | 0.00 | 0.01 | 54 | 1007.1 |
| 20260509203941 | 93 | 269 | 1.0 | 1.0 | 0.00 | 0.00 | 0.01 | 54 | 1007.1 |
| 20260509203722 | 93 | 351 | 1.0 | 5.0 | 0.00 | 0.01 | 0.01 | 53 | 1006.1 |
| 20260509203440 | 94 | 32 | 4.0 | 5.0 | 0.00 | 0.00 | 0.01 | 52 | 1007.1 |
| 20260509203219 | 94 | 243 | 0.0 | 3.0 | 0.00 | 0.01 | 0.01 | 54 | 1006.1 |
| 20260509202939 | 94 | 290 | 0.0 | 3.0 | 0.00 | 0.00 | 0.01 | 54 | 1007.5 |
| 20260509202719 | 94 | 222 | 1.0 | 4.0 | 0.00 | 0.01 | 0.01 | 54 | 1006.2 |
| 20260509202443 | 94 | 219 | 0.0 | 2.0 | 0.00 | 0.00 | 0.01 | 53 | 1007.5 |
| 20260509202220 | 93 | 225 | 1.0 | 4.0 | 0.00 | 0.01 | 0.01 | 53 | 1006.3 |
| 20260509201939 | 93 | 263 | 0.0 | 4.0 | 0.00 | 0.00 | 0.01 | 54 | 1007.5 |
| 20260509201721 | 93 | 183 | 1.0 | 4.0 | 0.00 | 0.01 | 0.01 | 54 | 1006.3 |
| 20260509201439 | 93 | 58 | 0.0 | 2.0 | 0.00 | 0.00 | 0.01 | 54 | 1007.5 |
| 20260509200939 | 93 | 319 | 1.0 | 2.0 | 0.00 | 0.00 | 0.01 | 56 | 1007.5 |
| 20260509200720 | 93 | 223 | 1.0 | 4.0 | 0.00 | 0.01 | 0.01 | 55 | 1006.3 |
| 20260509200437 | 93 | 163 | 1.0 | 2.0 | 0.00 | 0.00 | 0.01 | 55 | 1007.5 |
| 20260509195943 | 93 | 254 | 1.0 | 4.0 | 0.00 | 0.00 | 0.01 | 56 | 1007.5 |
| 20260509195719 | 94 | 60 | 1.0 | 7.0 | 0.00 | 0.01 | 0.01 | 57 | 1006.5 |
| 20260509195444 | 94 | 61 | 0.0 | 3.0 | 0.00 | 0.00 | 0.01 | 55 | 1007.8 |
| 20260509195220 | 94 | 188 | 2.0 | 7.0 | 0.00 | 0.01 | 0.01 | 55 | 1006.6 |
| 20260509195010 | 94 | 219 | 2.0 | 2.0 | 0.00 | 0.00 | 0.01 | 56 | 1007.8 |
| 20260509194719 | 93 | 277 | 2.0 | 6.0 | 0.00 | 0.01 | 0.01 | 56 | 1006.6 |
| 20260509194512 | 93 | 148 | 0.0 | 4.0 | 0.00 | 0.00 | 0.01 | 54 | 1007.8 |
| 20260509194219 | 93 | 269 | 1.0 | 6.0 | 0.00 | 0.01 | 0.01 | 55 | 1006.8 |
| 20260509194014 | 93 | 218 | 6.0 | 6.0 | 0.00 | 0.00 | 0.01 | 56 | 1008.1 |
| 20260509193717 | 93 | 71 | 1.0 | 3.0 | 0.00 | 0.01 | 0.01 | 56 | 1006.8 |
| 20260509193512 | 94 | 313 | 3.0 | 3.0 | 0.00 | 0.00 | 0.01 | 55 | 1008.1 |
| 20260509193218 | 94 | 46 | 0.0 | 3.0 | 0.00 | 0.01 | 0.01 | 56 | 1006.9 |
| 20260509193014 | 93 | 250 | 0.0 | 1.0 | 0.00 | 0.00 | 0.01 | 56 | 1008.1 |
| 20260509192717 | 92 | 164 | 1.0 | 3.0 | 0.00 | 0.01 | 0.01 | 57 | 1006.9 |
| 20260509192513 | 92 | 32 | 1.0 | 3.0 | 0.00 | 0.00 | 0.01 | 57 | 1008.1 |
| 20260509192013 | 92 | 84 | 0.0 | 3.0 | 0.00 | 0.00 | 0.01 | 57 | 1008.1 |
| 20260509191713 | 92 | 57 | 1.0 | 3.0 | 0.00 | 0.01 | 0.01 | 57 | 1006.9 |
| 20260509191516 | 92 | 303 | 0.0 | 2.0 | 0.00 | 0.00 | 0.01 | 57 | 1008.1 |
| 20260509191213 | 92 | 242 | 1.0 | 4.0 | 0.00 | 0.01 | 0.01 | 57 | 1007.1 |
| 20260509191012 | 92 | 276 | 1.0 | 3.0 | 0.00 | 0.00 | 0.01 | 57 | 1008.1 |
| 20260509190714 | 92 | 329 | 1.0 | 4.0 | 0.00 | 0.01 | 0.01 | 58 | 1007.1 |
| 20260509190513 | 91 | 267 | 1.0 | 4.0 | 0.00 | 0.00 | 0.01 | 57 | 1008.1 |
| 20260509190212 | 91 | 203 | 0.0 | 2.0 | 0.00 | 0.01 | 0.01 | 59 | 1007.1 |
| 20260509190011 | 91 | 71 | 0.0 | 0.0 | 0.00 | 0.00 | 0.01 | 59 | 1008.5 |
| 20260509185516 | 90 | 53 | 0.0 | 2.0 | 0.00 | 0.00 | 0.01 | 60 | 1008.5 |
| 20260509185208 | 90 | 54 | 1.0 | 5.0 | 0.00 | 0.01 | 0.01 | 61 | 1007.1 |
| 20260509185037 | 90 | 46 | 0.0 | 3.0 | 0.00 | 0.00 | 0.01 | 60 | 1008.5 |
| 20260509184706 | 91 | 36 | 1.0 | 5.0 | 0.00 | 0.01 | 0.01 | 59 | 1007.2 |
| 20260509184543 | 91 | 57 | 1.0 | 2.0 | 0.00 | 0.00 | 0.01 | 60 | 1008.5 |
| 20260509184206 | 91 | 13 | 1.0 | 6.0 | 0.00 | 0.01 | 0.01 | 58 | 1007.2 |
| 20260509184042 | 91 | 57 | 1.0 | 4.0 | 0.00 | 0.00 | 0.01 | 59 | 1008.5 |
| 20260509183705 | 91 | 248 | 1.0 | 6.0 | 0.00 | 0.01 | 0.01 | 60 | 1007.3 |
| 20260509183612 | 90 | 304 | 1.0 | 2.0 | 0.00 | 0.00 | 0.01 | 60 | 1008.5 |
| 20260509183206 | 90 | 41 | 1.0 | 4.0 | 0.00 | 0.01 | 0.01 | 61 | 1007.3 |
| 20260509183113 | 90 | 31 | 2.0 | 3.0 | 0.00 | 0.00 | 0.01 | 61 | 1008.5 |
| 20260509182705 | 89 | 59 | 1.0 | 9.0 | 0.00 | 0.01 | 0.01 | 60 | 1007.4 |
| 20260509182613 | 89 | 59 | 0.0 | 3.0 | 0.00 | 0.00 | 0.01 | 59 | 1008.5 |
| 20260509182205 | 90 | 30 | 1.0 | 9.0 | 0.00 | 0.01 | 0.01 | 59 | 1007.4 |
| 20260509182113 | 90 | 30 | 0.0 | 5.0 | 0.00 | 0.00 | 0.01 | 59 | 1008.5 |
| 20260509181702 | 90 | 110 | 1.0 | 6.0 | 0.00 | 0.01 | 0.01 | 59 | 1007.6 |
| 20260509181612 | 90 | 78 | 1.0 | 6.0 | 0.00 | 0.00 | 0.01 | 59 | 1008.8 |
| 20260509181156 | 90 | 59 | 0.0 | 2.0 | 0.00 | 0.01 | 0.01 | 61 | 1007.6 |
| 20260509181113 | 90 | 60 | 0.0 | 2.0 | 0.00 | 0.00 | 0.01 | 61 | 1008.8 |
| 20260509180648 | 89 | 148 | 1.0 | 3.0 | 0.00 | 0.01 | 0.01 | 64 | 1007.7 |
| 20260509180613 | 88 | 144 | 0.0 | 2.0 | 0.00 | 0.00 | 0.01 | 63 | 1008.8 |
| 20260509180142 | 88 | 355 | 1.0 | 4.0 | 0.00 | 0.01 | 0.01 | 62 | 1007.9 |
| 20260509180110 | 88 | 178 | 2.0 | 3.0 | 0.00 | 0.00 | 0.01 | 63 | 1009.1 |
| 20260509175635 | 87 | 51 | 1.0 | 3.0 | 0.00 | 0.01 | 0.01 | 63 | 1007.9 |
| 20260509175613 | 87 | 74 | 1.0 | 2.0 | 0.00 | 0.00 | 0.01 | 63 | 1009.1 |
| 20260509175129 | 87 | 48 | 1.0 | 4.0 | 0.00 | 0.01 | 0.01 | 64 | 1008.0 |
| 20260509175111 | 87 | 76 | 3.0 | 3.0 | 0.00 | 0.00 | 0.01 | 65 | 1009.1 |
| 20260509174610 | 87 | 63 | 3.0 | 3.0 | 0.00 | 0.00 | 0.01 | 64 | 1009.1 |
| 20260509174123 | 87 | 132 | 1.0 | 4.0 | 0.00 | 0.01 | 0.01 | 65 | 1008.1 |
| 20260509174115 | 87 | 55 | 1.0 | 2.0 | 0.00 | 0.00 | 0.01 | 65 | 1009.1 |
| 20260509173624 | 87 | 63 | 1.0 | 6.0 | 0.00 | 0.01 | 0.01 | 65 | 1008.3 |
| 20260509173614 | 87 | 75 | 2.0 | 3.0 | 0.00 | 0.00 | 0.01 | 65 | 1009.5 |
| 20260509173124 | 86 | 84 | 1.0 | 6.0 | 0.00 | 0.01 | 0.01 | 67 | 1008.3 |
| 20260509173115 | 86 | 341 | 0.0 | 3.0 | 0.00 | 0.00 | 0.01 | 67 | 1009.5 |
| 20260509172611 | 86 | 310 | 0.0 | 0.0 | 0.00 | 0.00 | 0.01 | 66 | 1009.5 |
| 20260509172122 | 86 | 46 | 1.0 | 5.0 | 0.00 | 0.01 | 0.01 | 66 | 1008.4 |
| 20260509172112 | 86 | 46 | 0.0 | 4.0 | 0.00 | 0.00 | 0.01 | 65 | 1009.5 |
| 20260509171621 | 86 | 23 | 1.0 | 4.0 | 0.00 | 0.01 | 0.01 | 66 | 1008.3 |
| 20260509171613 | 86 | 23 | 0.0 | 2.0 | 0.00 | 0.00 | 0.01 | 66 | 1009.5 |
| 20260509171119 | 86 | 52 | 1.0 | 5.0 | 0.00 | 0.01 | 0.01 | 67 | 1008.3 |
| 20260509171112 | 86 | 35 | 0.0 | 1.0 | 0.00 | 0.00 | 0.01 | 67 | 1009.5 |
| 20260509170610 | 86 | 248 | 0.0 | 3.0 | 0.00 | 0.00 | 0.01 | 66 | 1009.5 |
| 20260509170119 | 85 | 42 | 1.0 | 3.0 | 0.00 | 0.01 | 0.01 | 67 | 1008.3 |
| 20260509170111 | 85 | 42 | 0.0 | 1.0 | 0.00 | 0.00 | 0.01 | 67 | 1009.5 |
| 20260509165614 | 85 | 69 | 1.0 | 3.0 | 0.00 | 0.00 | 0.01 | 65 | 1009.5 |
| 20260509165210 | 85 | 15 | 2.0 | 5.0 | 0.00 | 0.00 | 0.01 | 68 | 1009.8 |
| 20260509164714 | 85 | 56 | 0.0 | 1.0 | 0.00 | 0.00 | 0.01 | 69 | 1009.5 |
| 20260509164618 | 85 | 56 | 0.0 | 3.0 | 0.00 | 0.01 | 0.01 | 69 | 1008.5 |
| 20260509164213 | 84 | 296 | 0.0 | 1.0 | 0.00 | 0.00 | 0.01 | 71 | 1009.5 |
| 20260509164118 | 84 | 295 | 1.0 | 3.0 | 0.00 | 0.01 | 0.01 | 71 | 1008.5 |
| 20260509163714 | 84 | 240 | 0.0 | 1.0 | 0.00 | 0.00 | 0.01 | 70 | 1009.5 |
| 20260509163617 | 84 | 121 | 1.0 | 4.0 | 0.00 | 0.01 | 0.01 | 70 | 1008.5 |
| 20260509163212 | 85 | 26 | 1.0 | 4.0 | 0.00 | 0.00 | 0.01 | 68 | 1009.5 |
| 20260509163117 | 85 | 26 | 1.0 | 4.0 | 0.00 | 0.01 | 0.01 | 68 | 1008.3 |
| 20260509162713 | 86 | 56 | 1.0 | 1.0 | 0.00 | 0.00 | 0.01 | 70 | 1009.1 |
| 20260509162617 | 85 | 56 | 0.0 | 1.0 | 0.00 | 0.01 | 0.01 | 71 | 1008.2 |
| 20260509162212 | 85 | 56 | 0.0 | 1.0 | 0.00 | 0.00 | 0.01 | 70 | 1009.1 |
| 20260509162117 | 85 | 57 | 0.0 | 2.0 | 0.00 | 0.01 | 0.01 | 71 | 1007.8 |
| 20260509161711 | 84 | 57 | 0.0 | 1.0 | 0.00 | 0.00 | 0.01 | 70 | 1008.5 |
| 20260509161610 | 84 | 57 | 1.0 | 3.0 | 0.00 | 0.01 | 0.01 | 70 | 1007.5 |
| 20260509161213 | 84 | 215 | 0.0 | 3.0 | 0.00 | 0.00 | 0.01 | 71 | 1008.5 |
| 20260509161103 | 84 | 206 | 1.0 | 3.0 | 0.00 | 0.01 | 0.01 | 71 | 1007.3 |
| 20260509160713 | 84 | 238 | 0.0 | 2.0 | 0.00 | 0.00 | 0.01 | 73 | 1008.5 |
| 20260509160558 | 83 | 238 | 0.0 | 3.0 | 0.00 | 0.01 | 0.01 | 73 | 1007.5 |
| 20260509160212 | 83 | 227 | 1.0 | 1.0 | 0.00 | 0.00 | 0.01 | 74 | 1008.8 |
| 20260509155713 | 83 | 27 | 1.0 | 1.0 | 0.00 | 0.00 | 0.01 | 74 | 1008.5 |
| 20260509155551 | 83 | 10 | 1.0 | 4.0 | 0.00 | 0.01 | 0.01 | 74 | 1007.5 |
| 20260509155213 | 83 | 302 | 1.0 | 2.0 | 0.00 | 0.00 | 0.01 | 75 | 1008.8 |
| 20260509154712 | 82 | 218 | 0.0 | 4.0 | 0.00 | 0.00 | 0.01 | 77 | 1008.8 |
| 20260509154551 | 82 | 221 | 2.0 | 5.0 | 0.00 | 0.01 | 0.01 | 77 | 1007.7 |
| 20260509154211 | 81 | 232 | 2.0 | 2.0 | 0.00 | 0.00 | 0.01 | 80 | 1009.1 |
| 20260509154050 | 81 | 322 | 1.0 | 5.0 | 0.00 | 0.01 | 0.01 | 80 | 1007.8 |
| 20260509153720 | 80 | 233 | 0.0 | 2.0 | 0.00 | 0.00 | 0.01 | 82 | 1009.1 |
| 20260509153219 | 80 | 279 | 0.0 | 2.0 | 0.00 | 0.00 | 0.01 | 83 | 1009.1 |
| 20260509153049 | 79 | 246 | 2.0 | 6.0 | 0.00 | 0.01 | 0.01 | 83 | 1008.1 |
| 20260509152723 | 79 | 246 | 1.0 | 4.0 | 0.00 | 0.00 | 0.01 | 84 | 1009.1 |
| 20260509152219 | 78 | 236 | 1.0 | 6.0 | 0.00 | 0.00 | 0.01 | 85 | 1009.1 |
| 20260509151720 | 78 | 282 | 0.0 | 1.0 | 0.00 | 0.00 | 0.01 | 88 | 1009.1 |
| 20260509151218 | 78 | 243 | 3.0 | 7.0 | 0.00 | 0.00 | 0.01 | 87 | 1009.1 |
| 20260509151045 | 78 | 207 | 3.0 | 9.0 | 0.00 | 0.01 | 0.01 | 88 | 1007.8 |
| 20260509150721 | 78 | 263 | 4.0 | 7.0 | 0.00 | 0.00 | 0.01 | 88 | 1008.8 |
| 20260509150546 | 78 | 205 | 3.0 | 9.0 | 0.00 | 0.01 | 0.01 | 88 | 1007.5 |
| 20260509150219 | 78 | 272 | 6.0 | 8.0 | 0.00 | 0.00 | 0.01 | 89 | 1008.8 |
| 20260509150043 | 78 | 216 | 2.0 | 6.0 | 0.00 | 0.01 | 0.01 | 89 | 1007.7 |
| 20260509145719 | 77 | 231 | 0.0 | 3.0 | 0.00 | 0.00 | 0.01 | 90 | 1009.1 |
| 20260509145543 | 77 | 164 | 2.0 | 6.0 | 0.00 | 0.01 | 0.01 | 90 | 1007.8 |
| 20260509145219 | 77 | 234 | 1.0 | 4.0 | 0.00 | 0.00 | 0.01 | 91 | 1008.8 |
| 20260509145044 | 77 | 229 | 2.0 | 6.0 | 0.00 | 0.01 | 0.01 | 91 | 1007.8 |
| 20260509144719 | 77 | 225 | 1.0 | 4.0 | 0.00 | 0.00 | 0.01 | 91 | 1008.8 |
| 20260509144543 | 77 | 226 | 2.0 | 5.0 | 0.00 | 0.01 | 0.01 | 92 | 1007.7 |
| 20260509144218 | 77 | 224 | 1.0 | 5.0 | 0.00 | 0.00 | 0.01 | 92 | 1009.1 |
| 20260509144043 | 77 | 216 | 1.0 | 4.0 | 0.00 | 0.01 | 0.01 | 92 | 1008.0 |
| 20260509143719 | 77 | 233 | 2.0 | 3.0 | 0.00 | 0.00 | 0.01 | 92 | 1009.1 |
| 20260509143544 | 77 | 208 | 0.0 | 4.0 | 0.00 | 0.01 | 0.01 | 92 | 1008.3 |
| 20260509143218 | 77 | 261 | 1.0 | 4.0 | 0.00 | 0.00 | 0.01 | 93 | 1009.8 |
| 20260509143038 | 77 | 253 | 0.0 | 1.0 | 0.00 | 0.01 | 0.01 | 93 | 1008.6 |
| 20260509142720 | 77 | 252 | 0.0 | 1.0 | 0.00 | 0.00 | 0.01 | 92 | 1009.8 |
| 20260509142532 | 77 | 213 | 0.0 | 2.0 | 0.00 | 0.01 | 0.01 | 92 | 1008.6 |
| 20260509142219 | 77 | 229 | 0.0 | 0.0 | 0.00 | 0.00 | 0.01 | 92 | 1009.8 |
| 20260509142026 | 77 | 229 | 0.0 | 2.0 | 0.00 | 0.01 | 0.01 | 92 | 1008.5 |
| 20260509141718 | 77 | 222 | 0.0 | 0.0 | 0.00 | 0.00 | 0.01 | 92 | 1009.8 |
| 20260509141520 | 77 | 217 | 0.0 | 0.0 | 0.00 | 0.01 | 0.01 | 92 | 1008.6 |
| 20260509141218 | 77 | 210 | 0.0 | 0.0 | 0.00 | 0.00 | 0.01 | 93 | 1009.8 |
| 20260509141014 | 76 | 211 | 0.0 | 0.0 | 0.00 | 0.01 | 0.01 | 93 | 1008.5 |
| 20260509140718 | 77 | 211 | 0.0 | 0.0 | 0.00 | 0.00 | 0.01 | 93 | 1009.8 |
| 20260509140510 | 76 | 211 | 0.0 | 0.0 | 0.00 | 0.01 | 0.01 | 93 | 1008.5 |
| 20260509140222 | 76 | 205 | 0.0 | 0.0 | 0.00 | 0.00 | 0.01 | 93 | 1009.5 |
| 20260509140004 | 76 | 205 | 0.0 | 0.0 | 0.00 | 0.01 | 0.01 | 93 | 1008.4 |
| 20260509135717 | 76 | 205 | 0.0 | 0.0 | 0.00 | 0.00 | 0.01 | 94 | 1009.5 |
| 20260509135457 | 76 | 205 | 0.0 | 0.0 | 0.00 | 0.01 | 0.01 | 93 | 1008.4 |
| 20260509135219 | 76 | 205 | 0.0 | 0.0 | 0.00 | 0.00 | 0.01 | 93 | 1009.5 |
| 20260509134718 | 76 | 203 | 0.0 | 0.0 | 0.00 | 0.00 | 0.01 | 94 | 1009.8 |
| 20260509134444 | 76 | 203 | 0.0 | 2.0 | 0.00 | 0.01 | 0.01 | 93 | 1008.5 |
| 20260509134218 | 76 | 205 | 0.0 | 0.0 | 0.00 | 0.00 | 0.01 | 93 | 1009.8 |
| 20260509133938 | 76 | 205 | 0.0 | 2.0 | 0.00 | 0.01 | 0.01 | 93 | 1008.5 |
| 20260509133717 | 75 | 223 | 1.0 | 2.0 | 0.00 | 0.00 | 0.01 | 93 | 1009.5 |
| 20260509133216 | 75 | 185 | 0.0 | 0.0 | 0.00 | 0.00 | 0.01 | 93 | 1009.5 |
| 20260509132926 | 75 | 185 | 0.0 | 0.0 | 0.00 | 0.01 | 0.01 | 93 | 1008.3 |
| 20260509132717 | 75 | 182 | 0.0 | 0.0 | 0.00 | 0.00 | 0.01 | 93 | 1009.5 |
| 20260509132420 | 75 | 183 | 0.0 | 0.0 | 0.00 | 0.01 | 0.01 | 93 | 1008.1 |
| 20260509132215 | 75 | 153 | 0.0 | 0.0 | 0.00 | 0.00 | 0.01 | 93 | 1009.1 |
| 20260509131716 | 75 | 153 | 0.0 | 0.0 | 0.00 | 0.00 | 0.01 | 93 | 1009.1 |
| 20260509131408 | 75 | 153 | 0.0 | 0.0 | 0.00 | 0.01 | 0.01 | 93 | 1008.0 |
| 20260509131241 | 75 | 153 | 0.0 | 0.0 | 0.00 | 0.00 | 0.01 | 93 | 1009.1 |
| 20260509130903 | 75 | 153 | 0.0 | 0.0 | 0.00 | 0.01 | 0.01 | 93 | 1007.8 |
| 20260509130735 | 75 | 153 | 0.0 | 0.0 | 0.00 | 0.00 | 0.01 | 93 | 1009.1 |
| 20260509130358 | 75 | 153 | 0.0 | 1.0 | 0.00 | 0.02 | 0.01 | 93 | 1008.0 |
| 20260509130244 | 75 | 153 | 0.0 | 0.0 | 0.00 | 0.00 | 0.01 | 93 | 1009.1 |
| 20260509125850 | 75 | 168 | 0.0 | 2.0 | 0.00 | 0.02 | 0.01 | 93 | 1008.1 |
| 20260509125813 | 75 | 52 | 0.0 | 1.0 | 0.00 | 0.00 | 0.01 | 93 | 1009.1 |
| 20260509125344 | 75 | 53 | 0.0 | 4.0 | 0.00 | 0.02 | 0.01 | 93 | 1008.1 |
| 20260509125313 | 75 | 11 | 0.0 | 0.0 | 0.00 | 0.00 | 0.01 | 93 | 1009.1 |
| 20260509124838 | 75 | 12 | 0.0 | 4.0 | 0.00 | 0.02 | 0.01 | 93 | 1008.1 |
| 20260509124814 | 75 | 320 | 0.0 | 4.0 | 0.00 | 0.00 | 0.01 | 93 | 1009.1 |
| 20260509124332 | 75 | 269 | 1.0 | 3.0 | 0.00 | 0.02 | 0.01 | 93 | 1008.1 |
| 20260509124313 | 75 | 270 | 0.0 | 1.0 | 0.00 | 0.00 | 0.01 | 93 | 1009.1 |
| 20260509123826 | 75 | 254 | 1.0 | 6.0 | 0.00 | 0.02 | 0.01 | 94 | 1008.2 |
| 20260509123812 | 75 | 273 | 1.0 | 2.0 | 0.00 | 0.00 | 0.01 | 94 | 1009.1 |
| 20260509123322 | 75 | 270 | 1.0 | 6.0 | 0.00 | 0.02 | 0.01 | 94 | 1008.2 |
| 20260509123317 | 75 | 294 | 0.0 | 6.0 | 0.00 | 0.00 | 0.01 | 94 | 1009.1 |
| 20260509122814 | 75 | 32 | 2.0 | 9.0 | 0.00 | 0.02 | 0.01 | 94 | 1008.2 |
| 20260509122311 | 75 | 30 | 6.0 | 9.0 | 0.00 | 0.00 | 0.01 | 95 | 1009.5 |
| 20260509122308 | 75 | 32 | 2.0 | 9.0 | 0.01 | 0.02 | 0.01 | 95 | 1008.3 |
| 20260509121812 | 75 | 279 | 1.0 | 5.0 | 0.00 | 0.00 | 0.01 | 94 | 1009.1 |
| 20260509121802 | 74 | 261 | 3.0 | 8.0 | 0.01 | 0.02 | 0.01 | 94 | 1008.0 |
| 20260509121313 | 74 | 223 | 2.0 | 7.0 | 0.00 | 0.00 | 0.01 | 96 | 1007.8 |
| 20260509121257 | 74 | 223 | 2.0 | 8.0 | 0.01 | 0.02 | 0.01 | 95 | 1006.5 |
| 20260509120814 | 74 | 190 | 2.0 | 5.0 | 0.00 | 0.00 | 0.01 | 96 | 1006.8 |
| 20260509120750 | 74 | 229 | 2.0 | 7.0 | 0.01 | 0.02 | 0.01 | 96 | 1005.6 |
| 20260509120312 | 75 | 242 | 1.0 | 6.0 | 0.00 | 0.00 | 0.01 | 96 | 1006.4 |
| 20260509120244 | 74 | 196 | 3.0 | 7.0 | 0.01 | 0.02 | 0.01 | 96 | 1005.1 |
| 20260509115813 | 75 | 171 | 4.0 | 5.0 | 0.00 | 0.00 | 0.01 | 97 | 1005.8 |
| 20260509115738 | 74 | 156 | 3.0 | 8.0 | 0.01 | 0.02 | 0.01 | 97 | 1004.7 |
| 20260509115314 | 75 | 211 | 4.0 | 6.0 | 0.00 | 0.00 | 0.01 | 97 | 1006.1 |
| 20260509115233 | 74 | 157 | 4.0 | 9.0 | 0.01 | 0.02 | 0.01 | 97 | 1005.0 |
| 20260509114810 | 75 | 238 | 2.0 | 9.0 | 0.00 | 0.00 | 0.01 | 97 | 1006.4 |
| 20260509114726 | 74 | 257 | 3.0 | 9.0 | 0.01 | 0.02 | 0.01 | 97 | 1005.3 |
| 20260509114337 | 75 | 250 | 3.0 | 7.0 | 0.00 | 0.00 | 0.01 | 97 | 1006.4 |
| 20260509114220 | 74 | 121 | 2.0 | 7.0 | 0.01 | 0.02 | 0.01 | 97 | 1005.5 |
| 20260509113843 | 75 | 113 | 4.0 | 5.0 | 0.00 | 0.00 | 0.01 | 97 | 1006.8 |
| 20260509113716 | 75 | 163 | 1.0 | 5.0 | 0.01 | 0.02 | 0.01 | 97 | 1005.9 |
| 20260509113338 | 75 | 255 | 0.0 | 2.0 | 0.00 | 0.00 | 0.01 | 97 | 1007.5 |
| 20260509113207 | 75 | 262 | 1.0 | 4.0 | 0.01 | 0.02 | 0.01 | 97 | 1006.4 |
| 20260509112842 | 75 | 209 | 3.0 | 3.0 | 0.00 | 0.00 | 0.01 | 97 | 1008.5 |
| 20260509112703 | 75 | 254 | 0.0 | 3.0 | 0.01 | 0.02 | 0.01 | 97 | 1007.9 |
| 20260509112341 | 75 | 167 | 0.0 | 1.0 | 0.00 | 0.00 | 0.01 | 97 | 1009.5 |
| 20260509111840 | 75 | 91 | 1.0 | 1.0 | 0.00 | 0.00 | 0.00 | 97 | 1010.2 |
| 20260509111650 | 75 | 202 | 2.0 | 10.0 | 0.00 | 0.01 | 0.00 | 97 | 1009.0 |
| 20260509111340 | 75 | 252 | 1.0 | 5.0 | 0.00 | 0.00 | 0.00 | 97 | 1010.2 |
| 20260509111144 | 75 | 271 | 2.0 | 10.0 | 0.00 | 0.01 | 0.00 | 97 | 1008.7 |
| 20260509110836 | 75 | 240 | 1.0 | 10.0 | 0.00 | 0.00 | 0.00 | 97 | 1009.5 |
| 20260509110638 | 75 | 229 | 2.0 | 6.0 | 0.00 | 0.01 | 0.00 | 97 | 1008.3 |
| 20260509110342 | 75 | 221 | 0.0 | 2.0 | 0.00 | 0.00 | 0.00 | 97 | 1009.1 |
| 20260509110132 | 75 | 171 | 2.0 | 6.0 | 0.00 | 0.01 | 0.00 | 97 | 1008.2 |
| 20260509105910 | 75 | 344 | 0.0 | 6.0 | 0.00 | 0.00 | 0.00 | 97 | 1009.5 |
| 20260509105626 | 75 | 204 | 2.0 | 6.0 | 0.00 | 0.01 | 0.00 | 98 | 1008.2 |
| 20260509105410 | 75 | 217 | 1.0 | 3.0 | 0.00 | 0.00 | 0.00 | 98 | 1009.1 |
| 20260509104912 | 75 | 197 | 4.0 | 4.0 | 0.00 | 0.00 | 0.00 | 97 | 1008.8 |
| 20260509104412 | 75 | 47 | 4.0 | 4.0 | 0.00 | 0.00 | 0.00 | 97 | 1009.1 |
| 20260509104109 | 75 | 348 | 0.0 | 2.0 | 0.00 | 0.01 | 0.00 | 97 | 1007.8 |
| 20260509103935 | 75 | 326 | 1.0 | 1.0 | 0.00 | 0.00 | 0.00 | 97 | 1008.5 |
| 20260509103441 | 75 | 221 | 0.0 | 1.0 | 0.00 | 0.00 | 0.00 | 97 | 1008.5 |
| 20260509102942 | 75 | 161 | 0.0 | 0.0 | 0.00 | 0.00 | 0.00 | 97 | 1008.5 |
| 20260509102550 | 75 | 161 | 0.0 | 1.0 | 0.00 | 0.01 | 0.00 | 97 | 1007.2 |
| 20260509102437 | 75 | 161 | 0.0 | 0.0 | 0.00 | 0.00 | 0.00 | 97 | 1008.5 |
| 20260509102044 | 75 | 161 | 0.0 | 1.0 | 0.00 | 0.01 | 0.00 | 97 | 1007.4 |
| 20260509101938 | 75 | 161 | 1.0 | 1.0 | 0.00 | 0.00 | 0.00 | 97 | 1008.5 |
| 20260509101539 | 75 | 159 | 0.0 | 1.0 | 0.00 | 0.01 | 0.00 | 97 | 1007.4 |
| 20260509101442 | 75 | 160 | 0.0 | 0.0 | 0.00 | 0.00 | 0.00 | 97 | 1008.5 |
| 20260509101033 | 75 | 159 | 0.0 | 1.0 | 0.00 | 0.01 | 0.00 | 97 | 1007.4 |
| 20260509100942 | 75 | 158 | 0.0 | 1.0 | 0.00 | 0.00 | 0.00 | 97 | 1008.5 |
| 20260509100526 | 75 | 158 | 0.0 | 1.0 | 0.00 | 0.01 | 0.00 | 97 | 1007.5 |
| 20260509100442 | 75 | 158 | 0.0 | 0.0 | 0.00 | 0.00 | 0.00 | 97 | 1008.5 |
| 20260509100020 | 75 | 91 | 0.0 | 1.0 | 0.00 | 0.01 | 0.00 | 97 | 1007.4 |
| 20260509095942 | 75 | 91 | 0.0 | 1.0 | 0.00 | 0.00 | 0.00 | 97 | 1008.5 |
| 20260509095514 | 75 | 88 | 0.0 | 1.0 | 0.00 | 0.01 | 0.00 | 97 | 1007.0 |
| 20260509095436 | 75 | 88 | 0.0 | 1.0 | 0.00 | 0.00 | 0.00 | 97 | 1008.1 |
| 20260509095008 | 75 | 68 | 0.0 | 1.0 | 0.00 | 0.01 | 0.00 | 97 | 1006.9 |
| 20260509094937 | 75 | 68 | 0.0 | 0.0 | 0.00 | 0.00 | 0.00 | 97 | 1008.1 |
| 20260509094502 | 75 | 68 | 0.0 | 1.0 | 0.00 | 0.01 | 0.00 | 97 | 1006.9 |
| 20260509094439 | 75 | 69 | 0.0 | 0.0 | 0.00 | 0.00 | 0.00 | 97 | 1008.1 |
| 20260509093957 | 75 | 69 | 0.0 | 1.0 | 0.00 | 0.01 | 0.00 | 97 | 1006.9 |
| 20260509093939 | 75 | 69 | 0.0 | 0.0 | 0.00 | 0.00 | 0.00 | 97 | 1008.1 |
| 20260509093449 | 75 | 69 | 0.0 | 1.0 | 0.00 | 0.01 | 0.00 | 97 | 1007.0 |
| 20260509093443 | 75 | 69 | 0.0 | 0.0 | 0.00 | 0.00 | 0.00 | 97 | 1008.1 |
| 20260509092945 | 75 | 69 | 0.0 | 1.0 | 0.00 | 0.01 | 0.00 | 97 | 1007.0 |
| 20260509092940 | 75 | 69 | 0.0 | 0.0 | 0.00 | 0.00 | 0.00 | 97 | 1008.1 |
| 20260509092441 | 75 | 68 | 0.0 | 0.0 | 0.00 | 0.00 | 0.00 | 97 | 1008.1 |
| 20260509092438 | 75 | 68 | 0.0 | 0.0 | 0.00 | 0.01 | 0.00 | 97 | 1007.0 |
| 20260509091940 | 75 | 68 | 0.0 | 0.0 | 0.00 | 0.00 | 0.00 | 97 | 1008.1 |
| 20260509091441 | 75 | 67 | 0.0 | 0.0 | 0.00 | 0.00 | 0.00 | 97 | 1008.1 |
| 20260509090942 | 75 | 68 | 0.0 | 0.0 | 0.00 | 0.00 | 0.00 | 97 | 1007.8 |
| 20260509090922 | 75 | 68 | 0.0 | 0.0 | 0.00 | 0.01 | 0.00 | 97 | 1006.7 |
| 20260509090514 | 75 | 68 | 0.0 | 0.0 | 0.00 | 0.00 | 0.00 | 97 | 1008.1 |
| 20260509090413 | 75 | 68 | 0.0 | 1.0 | 0.00 | 0.01 | 0.00 | 97 | 1006.7 |
| 20260509090013 | 75 | 68 | 0.0 | 1.0 | 0.00 | 0.00 | 0.00 | 97 | 1007.8 |
| 20260509085908 | 75 | 68 | 0.0 | 1.0 | 0.00 | 0.01 | 0.00 | 97 | 1006.9 |
| 20260509085510 | 75 | 48 | 0.0 | 1.0 | 0.00 | 0.00 | 0.00 | 97 | 1008.1 |
| 20260509085402 | 75 | 48 | 0.0 | 1.0 | 0.00 | 0.01 | 0.00 | 97 | 1006.9 |
| 20260509085012 | 75 | 47 | 0.0 | 0.0 | 0.00 | 0.00 | 0.00 | 97 | 1008.1 |
| 20260509084857 | 74 | 47 | 0.0 | 0.0 | 0.00 | 0.01 | 0.00 | 97 | 1006.8 |
| 20260509084516 | 75 | 47 | 0.0 | 0.0 | 0.00 | 0.00 | 0.00 | 97 | 1008.1 |
| 20260509084349 | 74 | 47 | 0.0 | 0.0 | 0.00 | 0.01 | 0.00 | 97 | 1006.8 |
| 20260509084018 | 75 | 47 | 0.0 | 0.0 | 0.00 | 0.00 | 0.00 | 97 | 1007.8 |
| 20260509083844 | 74 | 47 | 0.0 | 0.0 | 0.00 | 0.01 | 0.00 | 97 | 1006.9 |
| 20260509083516 | 75 | 47 | 0.0 | 0.0 | 0.00 | 0.00 | 0.00 | 97 | 1008.1 |
| 20260509083338 | 74 | 47 | 0.0 | 0.0 | 0.00 | 0.01 | 0.00 | 97 | 1006.7 |
| 20260509083017 | 75 | 47 | 0.0 | 0.0 | 0.00 | 0.00 | 0.00 | 97 | 1007.8 |
| 20260509082832 | 74 | 47 | 0.0 | 1.0 | 0.00 | 0.01 | 0.00 | 97 | 1006.6 |
| 20260509082514 | 75 | 47 | 0.0 | 0.0 | 0.00 | 0.00 | 0.00 | 97 | 1007.8 |
| 20260509082328 | 75 | 47 | 0.0 | 1.0 | 0.00 | 0.01 | 0.00 | 97 | 1006.6 |
| 20260509082017 | 75 | 48 | 0.0 | 1.0 | 0.00 | 0.00 | 0.00 | 97 | 1007.8 |
| 20260509081821 | 74 | 49 | 0.0 | 1.0 | 0.00 | 0.01 | 0.00 | 97 | 1006.7 |
| 20260509081515 | 75 | 323 | 0.0 | 0.0 | 0.00 | 0.00 | 0.00 | 97 | 1007.8 |
| 20260509081315 | 74 | 323 | 0.0 | 1.0 | 0.00 | 0.01 | 0.00 | 97 | 1006.6 |
| 20260509081016 | 74 | 72 | 0.0 | 0.0 | 0.00 | 0.00 | 0.00 | 97 | 1007.8 |
| 20260509080515 | 74 | 72 | 0.0 | 0.0 | 0.00 | 0.00 | 0.00 | 97 | 1007.8 |
| 20260509080302 | 74 | 72 | 0.0 | 1.0 | 0.00 | 0.01 | 0.00 | 97 | 1006.8 |
| 20260509080015 | 74 | 28 | 0.0 | 1.0 | 0.00 | 0.00 | 0.00 | 97 | 1008.1 |
| 20260509075542 | 73 | 26 | 0.0 | 1.0 | 0.00 | 0.00 | 0.00 | 97 | 1007.8 |
| 20260509075035 | 73 | 26 | 0.0 | 0.0 | 0.00 | 0.00 | 0.00 | 97 | 1008.1 |
| 20260509074744 | 73 | 26 | 0.0 | 1.0 | 0.00 | 0.01 | 0.00 | 96 | 1006.9 |
| 20260509074542 | 73 | 28 | 0.0 | 1.0 | 0.00 | 0.00 | 0.00 | 96 | 1008.1 |
| 20260509074238 | 73 | 28 | 0.0 | 1.0 | 0.00 | 0.01 | 0.00 | 96 | 1007.1 |
| 20260509074116 | 73 | 28 | 0.0 | 0.0 | 0.00 | 0.00 | 0.00 | 96 | 1008.5 |
| 20260509073613 | 73 | 28 | 0.0 | 0.0 | 0.00 | 0.00 | 0.00 | 96 | 1008.5 |
| 20260509073226 | 73 | 28 | 0.0 | 0.0 | 0.00 | 0.01 | 0.00 | 96 | 1007.4 |
| 20260509073113 | 73 | 28 | 0.0 | 0.0 | 0.00 | 0.00 | 0.00 | 96 | 1008.5 |
| 20260509072720 | 73 | 28 | 0.0 | 0.0 | 0.00 | 0.01 | 0.00 | 96 | 1007.3 |
| 20260509072613 | 73 | 28 | 0.0 | 0.0 | 0.00 | 0.00 | 0.00 | 96 | 1008.5 |
| 20260509072214 | 73 | 28 | 0.0 | 0.0 | 0.00 | 0.01 | 0.00 | 96 | 1007.4 |
| 20260509072112 | 73 | 28 | 0.0 | 0.0 | 0.00 | 0.00 | 0.00 | 96 | 1008.5 |
| 20260509071709 | 73 | 28 | 0.0 | 1.0 | 0.00 | 0.01 | 0.00 | 96 | 1007.5 |
| 20260509071613 | 73 | 28 | 0.0 | 0.0 | 0.00 | 0.00 | 0.00 | 96 | 1008.8 |
| 20260509071202 | 73 | 28 | 0.0 | 1.0 | 0.00 | 0.01 | 0.00 | 96 | 1007.6 |
| 20260509071112 | 73 | 28 | 0.0 | 0.0 | 0.00 | 0.00 | 0.00 | 96 | 1008.8 |
| 20260509070655 | 73 | 28 | 0.0 | 0.0 | 0.00 | 0.01 | 0.00 | 96 | 1007.6 |
| 20260509070611 | 73 | 28 | 0.0 | 0.0 | 0.00 | 0.00 | 0.00 | 96 | 1008.8 |
| 20260509070150 | 73 | 28 | 0.0 | 1.0 | 0.00 | 0.01 | 0.00 | 96 | 1007.6 |
| 20260509070112 | 73 | 28 | 0.0 | 0.0 | 0.00 | 0.00 | 0.00 | 96 | 1008.8 |
| 20260509065644 | 73 | 28 | 0.0 | 1.0 | 0.00 | 0.01 | 0.00 | 96 | 1007.8 |
| 20260509065613 | 73 | 28 | 0.0 | 1.0 | 0.00 | 0.00 | 0.00 | 96 | 1008.8 |
| 20260509065139 | 73 | 26 | 0.0 | 1.0 | 0.00 | 0.01 | 0.00 | 96 | 1007.7 |
| 20260509065136 | 73 | 26 | 0.0 | 1.0 | 0.00 | 0.00 | 0.00 | 96 | 1008.8 |
| 20260509064713 | 73 | 25 | 0.0 | 0.0 | 0.00 | 0.00 | 0.00 | 96 | 1008.8 |
| 20260509064212 | 73 | 27 | 0.0 | 1.0 | 0.00 | 0.00 | 0.00 | 96 | 1009.1 |
| 20260509064126 | 73 | 26 | 0.0 | 1.0 | 0.00 | 0.01 | 0.00 | 96 | 1008.0 |
| 20260509063739 | 73 | 28 | 0.0 | 1.0 | 0.00 | 0.00 | 0.00 | 96 | 1009.1 |
| 20260509063620 | 73 | 26 | 0.0 | 0.0 | 0.00 | 0.01 | 0.00 | 96 | 1008.1 |
| 20260509063243 | 73 | 96 | 0.0 | 0.0 | 0.00 | 0.00 | 0.00 | 96 | 1009.1 |
| 20260509063119 | 73 | 96 | 0.0 | 0.0 | 0.00 | 0.01 | 0.00 | 96 | 1008.2 |
| 20260509062739 | 72 | 96 | 0.0 | 0.0 | 0.00 | 0.00 | 0.00 | 96 | 1009.1 |
| 20260509062243 | 72 | 96 | 0.0 | 0.0 | 0.00 | 0.00 | 0.00 | 95 | 1009.1 |
| 20260509062119 | 72 | 96 | 0.0 | 0.0 | 0.00 | 0.01 | 0.00 | 95 | 1008.0 |
| 20260509061741 | 72 | 96 | 0.0 | 0.0 | 0.00 | 0.00 | 0.00 | 95 | 1009.1 |
| 20260509061621 | 72 | 96 | 0.0 | 0.0 | 0.00 | 0.01 | 0.00 | 95 | 1008.0 |
| 20260509061311 | 72 | 96 | 0.0 | 0.0 | 0.00 | 0.00 | 0.00 | 95 | 1009.1 |
| 20260509061120 | 72 | 96 | 0.0 | 0.0 | 0.00 | 0.01 | 0.00 | 95 | 1007.9 |
| 20260509060812 | 72 | 96 | 0.0 | 0.0 | 0.00 | 0.00 | 0.00 | 95 | 1009.1 |
| 20260509060617 | 72 | 96 | 0.0 | 0.0 | 0.00 | 0.01 | 0.00 | 95 | 1007.9 |
| 20260509060312 | 72 | 96 | 0.0 | 0.0 | 0.00 | 0.00 | 0.00 | 95 | 1009.1 |
| 20260509060115 | 72 | 96 | 0.0 | 0.0 | 0.00 | 0.01 | 0.00 | 95 | 1007.9 |
| 20260509055813 | 72 | 96 | 0.0 | 0.0 | 0.00 | 0.00 | 0.00 | 95 | 1009.1 |
| 20260509055613 | 72 | 96 | 0.0 | 0.0 | 0.00 | 0.01 | 0.00 | 95 | 1008.0 |
| 20260509055311 | 72 | 96 | 0.0 | 0.0 | 0.00 | 0.00 | 0.00 | 94 | 1009.1 |
| 20260509055123 | 72 | 96 | 0.0 | 0.0 | 0.00 | 0.01 | 0.00 | 94 | 1007.9 |
| 20260509054811 | 72 | 96 | 0.0 | 0.0 | 0.00 | 0.00 | 0.00 | 94 | 1009.1 |
| 20260509054609 | 73 | 96 | 0.0 | 0.0 | 0.00 | 0.01 | 0.00 | 94 | 1007.9 |
| 20260509054312 | 73 | 96 | 0.0 | 0.0 | 0.00 | 0.00 | 0.00 | 94 | 1009.1 |
| 20260509054107 | 73 | 96 | 0.0 | 0.0 | 0.00 | 0.01 | 0.00 | 94 | 1007.9 |
| 20260509053812 | 73 | 96 | 0.0 | 0.0 | 0.00 | 0.00 | 0.00 | 94 | 1009.1 |
| 20260509053312 | 73 | 96 | 0.0 | 0.0 | 0.00 | 0.00 | 0.00 | 94 | 1009.1 |
| 20260509053104 | 73 | 96 | 0.0 | 1.0 | 0.00 | 0.01 | 0.00 | 94 | 1008.0 |
| 20260509052814 | 73 | 96 | 0.0 | 0.0 | 0.00 | 0.00 | 0.00 | 94 | 1009.1 |
| 20260509052313 | 73 | 96 | 0.0 | 0.0 | 0.00 | 0.00 | 0.00 | 94 | 1009.1 |
| 20260509052112 | 73 | 102 | 0.0 | 1.0 | 0.00 | 0.01 | 0.00 | 94 | 1008.0 |
| 20260509051812 | 73 | 103 | 0.0 | 1.0 | 0.00 | 0.00 | 0.00 | 94 | 1009.1 |
| 20260509051601 | 73 | 103 | 0.0 | 1.0 | 0.00 | 0.01 | 0.00 | 94 | 1008.0 |
| 20260509051311 | 73 | 103 | 0.0 | 0.0 | 0.00 | 0.00 | 0.00 | 94 | 1009.1 |
| 20260509051059 | 73 | 103 | 0.0 | 0.0 | 0.00 | 0.01 | 0.00 | 94 | 1008.1 |
| 20260509050810 | 73 | 103 | 0.0 | 0.0 | 0.00 | 0.00 | 0.00 | 94 | 1009.1 |
| 20260509050601 | 73 | 103 | 0.0 | 2.0 | 0.00 | 0.01 | 0.00 | 94 | 1008.2 |
| 20260509050312 | 73 | 102 | 0.0 | 0.0 | 0.00 | 0.00 | 0.00 | 94 | 1009.1 |
| 20260509050059 | 73 | 102 | 0.0 | 2.0 | 0.00 | 0.01 | 0.00 | 94 | 1008.2 |
| 20260509045813 | 73 | 111 | 0.0 | 1.0 | 0.00 | 0.00 | 0.01 | 94 | 1009.5 |
| 20260509045559 | 73 | 111 | 0.0 | 1.0 | 0.00 | 0.01 | 0.01 | 94 | 1008.3 |
| 20260509045313 | 73 | 86 | 0.0 | 1.0 | 0.00 | 0.00 | 0.01 | 94 | 1009.5 |
| 20260509045053 | 73 | 85 | 0.0 | 1.0 | 0.00 | 0.01 | 0.01 | 94 | 1008.3 |